East Camden, New Jersey
Current Conditions -  °F | °C
As of 12:54 AM on Sunday 23 Nov 2014 (Local Time) from KPHL Reporting Station
Broken Clouds Broken Clouds  
Wind Chill: 37°   Ceiling: 12000
Heat Index: 42°   Visibility: 10mi
Dew Point: 24°   Wind: 8mph
Humidity: 49%   Direction: 220°SW
Pressure: 30.24"   Gusts: NA
Location:  39.9508°N, 75.0881°W
Report Text: KPHL 230554Z 22007KT 10SM SCT090 BKN120 06/M04 A3024 RMK AO2 SLP240 T00561044 10067 20056 58008 $
Loading
Personal Weather Stations






























Interactive Weather Map New forecast layout! Learn more

10-Day Weather Forecast

Advertisements
Track Severe Weather on mobile